Time;durP1;ratioP1;P1;durP2;ratioP2;P2;SDS_P1;SDS_P2;PMS_P1;PMS_P2;Temp;Humidity;BMP_temperature;BMP_pressure;BME280_temperature;BME280_humidity;BME280_pressure;Samples;Min_cycle;Max_cycle;Signal;HPM_P1;HPM_P2
2023/03/01 00:01:08;;;;;;;7.95;5.75;;;;;;;7.24;89.75;101746.34;5011864;28;20030;-81
2023/03/01 00:03:34;;;;;;;10.70;6.18;;;;;;;7.32;90.14;101755.72;5011857;28;20104;-81
2023/03/01 00:06:00;;;;;;;8.85;6.15;;;;;;;7.31;90.12;101753.97;5010887;28;20057;-83
2023/03/01 00:08:26;;;;;;;10.88;6.28;;;;;;;7.29;90.39;101747.84;5011739;28;20093;-85
2023/03/01 00:11:11;;;;;;;9.15;6.30;;;;;;;7.33;90.39;101761.94;5011369;28;20032;-82
2023/03/01 00:13:36;;;;;;;10.35;7.05;;;;;;;7.24;89.94;101752.56;5025353;28;20029;-81
2023/03/01 00:16:07;;;;;;;8.80;6.07;;;;;;;7.20;90.02;101759.00;5011617;28;20029;-83
2023/03/01 00:18:33;;;;;;;10.63;7.20;;;;;;;7.13;89.74;101754.88;5011519;28;20029;-81
2023/03/01 00:20:59;;;;;;;11.38;7.38;;;;;;;7.06;90.02;101761.50;5010948;28;20030;-81
2023/03/01 00:23:24;;;;;;;11.23;7.20;;;;;;;6.98;90.22;101744.94;5011127;28;20040;-81
2023/03/01 00:25:50;;;;;;;11.68;6.90;;;;;;;7.07;90.21;101749.84;5011158;28;20034;-81
2023/03/01 00:28:16;;;;;;;11.20;7.47;;;;;;;7.02;90.52;101749.22;5011150;28;20402;-82
2023/03/01 00:30:42;;;;;;;18.45;8.73;;;;;;;6.81;90.51;101742.22;5011206;28;20183;-82
2023/03/01 00:33:07;;;;;;;13.48;8.48;;;;;;;6.93;91.27;101752.31;5011107;28;20038;-82
2023/03/01 00:35:34;;;;;;;13.10;8.95;;;;;;;6.97;90.73;101757.44;5011255;28;20026;-82
2023/03/01 00:38:00;;;;;;;12.93;8.60;;;;;;;6.86;91.42;101749.06;5010849;28;20045;-82
2023/03/01 00:40:29;;;;;;;11.35;7.25;;;;;;;6.85;91.56;101742.00;5012693;28;20030;-82
2023/03/01 00:42:55;;;;;;;16.02;9.23;;;;;;;6.77;91.20;101713.88;5011748;28;20561;-83
2023/03/01 00:45:20;;;;;;;12.07;8.32;;;;;;;6.60;91.37;101700.47;5013329;28;20110;-83
2023/03/01 00:47:46;;;;;;;11.90;7.55;;;;;;;6.58;91.39;101704.09;5021294;28;20485;-83
2023/03/01 00:50:12;;;;;;;15.73;7.85;;;;;;;6.51;91.44;101717.81;5021716;28;20117;-82
2023/03/01 00:52:37;;;;;;;17.70;6.90;;;;;;;6.57;91.07;101717.53;5011901;28;20025;-81
2023/03/01 00:55:04;;;;;;;11.20;6.20;;;;;;;6.35;90.19;101690.09;5011361;28;20033;-82
2023/03/01 00:57:29;;;;;;;10.88;6.38;;;;;;;6.44;89.83;101713.69;4993355;28;20176;-81
2023/03/01 00:59:55;;;;;;;12.18;6.95;;;;;;;6.37;89.50;101697.09;5011079;28;20120;-81
2023/03/01 01:02:21;;;;;;;11.90;6.90;;;;;;;6.37;90.16;101688.19;5011024;28;20025;-81
2023/03/01 01:04:46;;;;;;;10.77;6.63;;;;;;;6.47;90.00;101706.41;5010931;28;20201;-82
2023/03/01 01:07:12;;;;;;;16.50;7.70;;;;;;;6.54;90.07;101707.00;5010773;28;20544;-82
2023/03/01 01:09:38;;;;;;;11.07;6.78;;;;;;;6.50;89.89;101692.91;5010460;28;20030;-83
2023/03/01 01:12:04;;;;;;;13.73;7.40;;;;;;;6.50;89.83;101682.22;5010708;28;20493;-82
2023/03/01 01:14:29;;;;;;;17.23;7.20;;;;;;;6.45;89.27;101681.53;5010642;28;20041;-82
2023/03/01 01:16:55;;;;;;;19.73;8.18;;;;;;;6.54;88.68;101675.75;5010472;28;20022;-83
2023/03/01 01:19:20;;;;;;;14.80;8.25;;;;;;;6.45;88.97;101672.69;5010613;28;20579;-82
2023/03/01 01:21:47;;;;;;;14.10;8.20;;;;;;;6.50;88.44;101678.66;5010060;28;20033;-82
2023/03/01 01:24:13;;;;;;;16.70;9.45;;;;;;;6.38;88.33;101666.75;5010489;28;20030;-81
2023/03/01 01:26:38;;;;;;;15.02;9.43;;;;;;;6.50;88.58;101684.88;5010376;28;20022;-82
2023/03/01 01:29:05;;;;;;;17.05;9.23;;;;;;;6.57;88.61;101690.81;5010873;28;20037;-83
2023/03/01 01:31:31;;;;;;;19.55;10.77;;;;;;;6.47;88.64;101660.97;5010515;28;20353;-81
2023/03/01 01:33:58;;;;;;;17.38;8.82;;;;;;;6.55;88.29;101684.66;5010194;28;20029;-82
2023/03/01 01:36:24;;;;;;;16.08;10.25;;;;;;;6.56;88.20;101676.56;5010509;28;20026;-82
2023/03/01 01:38:51;;;;;;;18.08;9.18;;;;;;;6.68;88.64;101676.91;5010981;28;20548;-82
2023/03/01 01:41:17;;;;;;;15.43;9.82;;;;;;;6.65;88.56;101690.44;5011968;28;20036;-81
2023/03/01 01:43:46;;;;;;;20.75;11.40;;;;;;;6.68;89.05;101684.94;5011752;28;20029;-81
2023/03/01 01:46:37;;;;;;;19.23;10.48;;;;;;;6.52;89.26;101677.66;5018824;28;20022;-82
2023/03/01 01:49:07;;;;;;;20.25;10.75;;;;;;;6.57;89.23;101662.25;5003085;28;20042;-82
2023/03/01 01:51:40;;;;;;;17.42;11.50;;;;;;;6.69;89.72;101678.66;4996423;28;20026;-83
2023/03/01 01:54:14;;;;;;;18.63;13.00;;;;;;;6.67;89.45;101675.16;4991181;28;20022;-82
2023/03/01 01:56:44;;;;;;;21.27;12.65;;;;;;;6.78;89.70;101694.25;4991359;28;20030;-82
2023/03/01 01:59:10;;;;;;;21.00;12.57;;;;;;;6.49;88.94;101666.25;4991124;28;20038;-82
2023/03/01 02:01:36;;;;;;;23.05;12.52;;;;;;;6.62;89.22;101693.25;4994383;28;20027;-82
2023/03/01 02:04:02;;;;;;;22.60;11.68;;;;;;;6.60;89.61;101668.41;4972639;28;20191;-82
2023/03/01 02:06:33;;;;;;;27.02;12.98;;;;;;;6.75;89.66;101670.34;4972756;28;20042;-83
2023/03/01 02:09:04;;;;;;;20.80;12.88;;;;;;;6.93;89.73;101680.13;4973127;28;20046;-83
2023/03/01 02:11:32;;;;;;;20.58;13.32;;;;;;;6.86;89.81;101650.13;4973258;28;20639;-84
2023/03/01 02:13:58;;;;;;;27.23;13.27;;;;;;;7.06;89.63;101689.28;4973099;28;20114;-82
2023/03/01 02:16:25;;;;;;;19.23;12.25;;;;;;;7.04;89.61;101667.94;4972957;28;20528;-83
2023/03/01 02:18:51;;;;;;;22.85;14.02;;;;;;;7.25;88.81;101694.56;4972411;28;20186;-83
2023/03/01 02:21:34;;;;;;;19.92;12.93;;;;;;;7.27;88.69;101685.53;4972768;28;20061;-83
2023/03/01 02:24:13;;;;;;;19.65;13.57;;;;;;;7.37;88.78;101694.78;4972528;28;20058;-83
2023/03/01 02:26:57;;;;;;;21.38;12.80;;;;;;;7.39;87.78;101697.41;4972524;28;20026;-83
2023/03/01 02:29:24;;;;;;;22.77;13.30;;;;;;;7.37;87.65;101700.13;4972992;28;20069;-82
2023/03/01 02:31:52;;;;;;;23.40;14.00;;;;;;;7.13;86.69;101679.97;4972577;28;20102;-83
2023/03/01 02:34:24;;;;;;;19.90;12.65;;;;;;;7.20;86.51;101686.75;4976547;28;20046;-84
2023/03/01 02:37:12;;;;;;;18.98;11.02;;;;;;;7.36;86.16;101701.09;4994579;28;20022;-83
2023/03/01 02:39:46;;;;;;;22.85;14.35;;;;;;;7.43;86.25;101702.50;4994902;28;20121;-83
2023/03/01 02:42:16;;;;;;;22.20;14.73;;;;;;;7.49;85.54;101709.38;4995603;28;20027;-83
2023/03/01 02:44:42;;;;;;;19.92;13.18;;;;;;;7.29;84.74;101685.44;4995843;28;20126;-83
2023/03/01 02:47:07;;;;;;;21.83;13.75;;;;;;;7.30;84.46;101705.91;5011369;28;20014;-83
2023/03/01 02:49:36;;;;;;;24.85;13.63;;;;;;;7.32;84.96;101699.53;5010013;28;20049;-83
2023/03/01 02:52:43;;;;;;;25.20;14.68;;;;;;;7.38;85.42;101717.94;4996971;28;20022;-83
2023/03/01 02:55:12;;;;;;;20.75;14.35;;;;;;;7.26;84.61;101712.34;4953210;29;20158;-82
2023/03/01 02:57:41;;;;;;;27.17;15.43;;;;;;;7.11;84.86;101706.81;4953452;29;20047;-84
2023/03/01 03:00:32;;;;;;;22.55;15.32;;;;;;;7.14;85.53;101719.19;4955646;29;20027;-83
2023/03/01 03:02:58;;;;;;;25.38;16.17;;;;;;;7.32;85.57;101734.31;4967132;29;20040;-84
2023/03/01 03:05:27;;;;;;;21.15;15.15;;;;;;;7.22;85.75;101698.25;4976184;29;20032;-83
2023/03/01 03:07:54;;;;;;;27.73;16.17;;;;;;;7.40;85.29;101724.06;4977075;29;20063;-82
2023/03/01 03:10:26;;;;;;;24.55;16.88;;;;;;;7.52;85.54;101731.47;4963621;29;20039;-82
2023/03/01 03:12:57;;;;;;;23.63;15.73;;;;;;;7.48;85.43;101708.50;4955658;28;20024;-83
2023/03/01 03:15:24;;;;;;;26.92;17.02;;;;;;;7.63;85.06;101720.22;4940162;29;20038;-84
2023/03/01 03:17:52;;;;;;;26.48;16.40;;;;;;;7.70;84.20;101728.81;4937241;29;20046;-82
2023/03/01 03:20:20;;;;;;;26.63;17.63;;;;;;;7.56;83.69;101722.34;4952984;29;20046;-83
2023/03/01 03:22:48;;;;;;;31.48;18.15;;;;;;;7.54;83.56;101718.91;4952195;29;20052;-83
2023/03/01 03:25:13;;;;;;;31.45;17.30;;;;;;;7.62;83.31;101722.03;4952074;29;20513;-82
2023/03/01 03:27:43;;;;;;;30.85;17.52;;;;;;;7.64;83.86;101703.22;4952148;29;20027;-81
2023/03/01 03:30:13;;;;;;;27.30;18.92;;;;;;;7.52;83.38;101703.88;4946965;28;20042;-82
2023/03/01 03:32:52;;;;;;;28.88;19.27;;;;;;;7.48;82.75;101703.16;4993020;28;20034;-82
2023/03/01 03:35:20;;;;;;;35.10;20.25;;;;;;;7.47;82.77;101701.41;4993334;28;20500;-82
2023/03/01 03:38:01;;;;;;;30.42;19.42;;;;;;;7.27;82.49;101719.44;4992986;28;20037;-83
2023/03/01 03:40:29;;;;;;;36.85;19.80;;;;;;;7.27;83.00;101722.97;4994404;28;20034;-82
2023/03/01 03:42:54;;;;;;;36.10;20.05;;;;;;;7.28;83.45;101718.50;4996340;28;20034;-83
2023/03/01 03:45:20;;;;;;;34.50;20.60;;;;;;;7.03;84.20;101689.44;4979404;28;20032;-84
2023/03/01 03:47:47;;;;;;;32.88;20.38;;;;;;;7.11;84.52;101704.16;5006918;28;20129;-83
2023/03/01 03:50:15;;;;;;;32.22;20.08;;;;;;;6.95;84.93;101696.94;5024727;28;20061;-83
2023/03/01 03:52:40;;;;;;;45.75;22.85;;;;;;;7.04;85.06;101681.31;5011928;28;20034;-81
2023/03/01 03:55:09;;;;;;;35.03;22.30;;;;;;;7.03;86.09;101671.53;4994818;28;20116;-83
2023/03/01 03:57:35;;;;;;;40.85;23.98;;;;;;;6.95;86.22;101678.22;5012078;28;20110;-82
2023/03/01 04:00:00;;;;;;;40.97;22.55;;;;;;;7.10;86.35;101680.13;5012018;28;20501;-82
2023/03/01 04:02:26;;;;;;;34.67;21.33;;;;;;;7.22;86.27;101684.88;5013064;28;20033;-81
2023/03/01 04:04:51;;;;;;;38.30;20.67;;;;;;;7.12;85.81;101651.53;5012839;28;20101;-83
2023/03/01 04:07:17;;;;;;;32.90;21.45;;;;;;;7.20;84.86;101662.69;5012788;28;20030;-82
2023/03/01 04:09:43;;;;;;;34.88;21.40;;;;;;;7.30;84.65;101665.75;5011707;28;20462;-82
2023/03/01 04:12:09;;;;;;;35.28;22.08;;;;;;;7.24;85.14;101650.91;4994753;28;20080;-84
2023/03/01 04:14:34;;;;;;;36.47;22.65;;;;;;;7.32;84.75;101670.09;5012508;28;20021;-81
2023/03/01 04:16:59;;;;;;;43.25;23.15;;;;;;;7.23;84.77;101662.53;5011565;28;20033;-82
2023/03/01 04:19:26;;;;;;;37.60;21.75;;;;;;;7.02;84.94;101639.53;5011509;28;20026;-83
2023/03/01 04:21:52;;;;;;;42.08;21.85;;;;;;;7.07;85.11;101659.75;5011073;28;20029;-83
2023/03/01 04:24:18;;;;;;;37.75;21.50;;;;;;;6.98;85.21;101662.03;5010942;28;20036;-82
2023/03/01 04:26:44;;;;;;;39.90;21.60;;;;;;;7.04;85.71;101667.06;5011602;28;20038;-84
2023/03/01 04:29:09;;;;;;;36.83;23.05;;;;;;;7.09;85.56;101670.41;5011206;28;20029;-83
2023/03/01 04:31:35;;;;;;;32.22;19.98;;;;;;;6.99;85.48;101670.00;5011365;28;20112;-83
2023/03/01 04:34:00;;;;;;;44.38;22.08;;;;;;;6.91;85.40;101669.47;5010540;28;20129;-84
2023/03/01 04:36:28;;;;;;;34.80;20.67;;;;;;;6.97;85.52;101679.88;5011908;28;20040;-82
2023/03/01 04:38:55;;;;;;;34.35;20.23;;;;;;;7.00;85.47;101679.72;5011825;28;20025;-81
2023/03/01 04:41:23;;;;;;;42.40;22.63;;;;;;;7.12;85.17;101678.28;4995746;28;20037;-82
2023/03/01 04:43:48;;;;;;;31.67;20.77;;;;;;;7.08;85.04;101698.09;5013705;28;20455;-82
2023/03/01 04:46:17;;;;;;;38.92;22.27;;;;;;;6.98;85.44;101683.41;5019684;28;20124;-82
2023/03/01 04:48:47;;;;;;;36.60;21.25;;;;;;;6.96;85.54;101679.97;5026344;28;20054;-82
2023/03/01 04:51:15;;;;;;;30.83;21.02;;;;;;;6.93;85.59;101674.78;5018581;28;20029;-82
2023/03/01 04:53:42;;;;;;;45.63;21.42;;;;;;;6.92;85.83;101655.19;4994760;28;20521;-83
2023/03/01 04:56:07;;;;;;;35.05;21.75;;;;;;;7.07;86.28;101675.81;5016082;28;20109;-81
2023/03/01 04:58:33;;;;;;;31.25;19.33;;;;;;;7.02;85.35;101671.63;5015735;28;20055;-81
2023/03/01 05:00:58;;;;;;;39.40;20.15;;;;;;;7.15;85.51;101674.56;5018239;28;20027;-81
2023/03/01 05:03:24;;;;;;;42.15;24.23;;;;;;;7.20;85.44;101670.72;5018529;28;20749;-82
2023/03/01 05:05:52;;;;;;;31.95;19.90;;;;;;;7.17;84.27;101667.31;5017830;28;20089;-83
2023/03/01 05:08:18;;;;;;;31.45;20.48;;;;;;;7.29;84.35;101674.72;5011509;28;20405;-83
2023/03/01 05:10:52;;;;;;;33.70;19.83;;;;;;;7.26;83.87;101674.88;5011159;28;20030;-82
2023/03/01 05:13:22;;;;;;;35.20;20.88;;;;;;;7.15;83.79;101656.72;5011894;28;20029;-83
2023/03/01 05:15:59;;;;;;;48.45;23.75;;;;;;;7.23;83.37;101665.19;5000081;28;20026;-83
2023/03/01 05:18:25;;;;;;;36.00;21.05;;;;;;;7.27;83.07;101676.63;5010893;28;20121;-82
2023/03/01 05:20:52;;;;;;;35.97;20.15;;;;;;;7.25;82.90;101663.31;5010909;28;20049;-82
2023/03/01 05:23:18;;;;;;;35.25;20.23;;;;;;;7.33;83.33;101671.81;5011008;28;20034;-83
2023/03/01 05:25:44;;;;;;;34.65;20.45;;;;;;;7.16;82.20;101668.25;5010423;28;20517;-82
2023/03/01 05:28:13;;;;;;;32.58;20.80;;;;;;;7.34;81.91;101686.91;5011427;28;20040;-86
2023/03/01 05:30:39;;;;;;;42.30;21.45;;;;;;;7.38;82.49;101669.78;5011188;28;20030;-84
2023/03/01 05:33:10;;;;;;;45.80;26.27;;;;;;;7.41;81.97;101680.31;5011061;28;20033;-84
2023/03/01 05:35:36;;;;;;;41.03;22.15;;;;;;;7.42;82.21;101663.31;5011419;28;20061;-86
2023/03/01 05:38:02;;;;;;;36.17;21.25;;;;;;;7.51;82.57;101670.88;5012210;28;20034;-81
2023/03/01 05:40:28;;;;;;;34.25;19.73;;;;;;;7.59;82.28;101681.16;5014303;28;20018;-84
2023/03/01 05:42:56;;;;;;;40.17;22.08;;;;;;;7.54;82.60;101672.50;5011913;28;20062;-91
2023/03/01 05:45:23;;;;;;;31.35;19.48;;;;;;;7.39;82.31;101687.56;5017875;28;20034;-85
2023/03/01 05:47:50;;;;;;;33.65;20.50;;;;;;;7.32;82.01;101678.13;5026516;28;20093;-85
2023/03/01 05:50:21;;;;;;;36.58;19.55;;;;;;;7.42;82.44;101683.88;5022490;28;20374;-80
2023/03/01 05:52:49;;;;;;;29.05;19.50;;;;;;;7.47;82.22;101680.00;5010313;28;20037;-82
2023/03/01 05:55:19;;;;;;;37.67;21.52;;;;;;;7.48;81.87;101681.75;5010483;28;20069;-82
2023/03/01 05:57:45;;;;;;;33.95;20.67;;;;;;;7.50;82.83;101663.78;5010819;28;20034;-83
2023/03/01 06:00:12;;;;;;;36.50;24.20;;;;;;;7.57;82.79;101667.88;5010354;28;20026;-84
2023/03/01 06:02:39;;;;;;;37.60;18.48;;;;;;;7.53;82.13;101660.94;5011255;28;20120;-78
2023/03/01 06:05:06;;;;;;;32.13;19.58;;;;;;;7.60;81.67;101675.75;5011004;28;20080;-86
2023/03/01 06:07:32;;;;;;;33.92;18.58;;;;;;;7.65;81.52;101681.72;5011150;28;20030;-83
2023/03/01 06:09:57;;;;;;;34.08;18.90;;;;;;;7.70;80.65;101669.91;5012873;28;20029;-85
2023/03/01 06:12:23;;;;;;;35.47;19.75;;;;;;;7.63;79.73;101670.22;5011678;28;20030;-84
2023/03/01 06:14:48;;;;;;;34.15;19.17;;;;;;;7.59;80.19;101675.81;5015563;28;20018;-88
2023/03/01 06:17:14;;;;;;;30.40;19.20;;;;;;;7.64;80.44;101692.53;4996671;28;20053;-88
2023/03/01 06:19:39;;;;;;;37.05;19.92;;;;;;;7.71;80.04;101693.03;5016528;28;20405;-84
2023/03/01 06:22:05;;;;;;;31.75;21.17;;;;;;;7.71;80.58;101687.69;5013823;28;20037;-92
2023/03/01 06:24:30;;;;;;;29.85;19.50;;;;;;;7.53;80.64;101679.69;5001789;28;20030;-85
2023/03/01 06:26:55;;;;;;;40.35;18.48;;;;;;;7.64;80.74;101682.66;4997800;28;20029;-89
2023/03/01 06:29:22;;;;;;;29.30;16.60;;;;;;;7.57;80.83;101686.63;5017167;28;20052;-87
2023/03/01 06:31:48;;;;;;;27.10;17.75;;;;;;;7.61;81.12;101673.94;4998939;28;20034;-90
2023/03/01 06:34:14;;;;;;;33.90;19.42;;;;;;;7.72;81.82;101686.75;5019044;28;20028;-87
2023/03/01 06:36:39;;;;;;;32.65;18.50;;;;;;;7.49;81.15;101658.53;5005238;28;20038;-88
2023/03/01 06:39:06;;;;;;;31.38;19.00;;;;;;;7.71;81.54;101680.53;5018780;28;20519;-89
2023/03/01 06:41:32;;;;;;;34.95;18.90;;;;;;;7.77;81.83;101693.59;5023103;28;20086;-87
2023/03/01 06:43:58;;;;;;;28.60;18.42;;;;;;;7.68;80.94;101686.03;5006219;28;20020;-89
2023/03/01 06:46:24;;;;;;;27.77;18.00;;;;;;;7.70;80.33;101668.09;5034689;28;20085;-88
2023/03/01 06:48:49;;;;;;;34.05;19.73;;;;;;;7.71;80.69;101660.91;5036246;28;20041;-85
2023/03/01 06:51:15;;;;;;;38.20;19.67;;;;;;;7.89;80.94;101670.66;5001969;28;20065;-89
2023/03/01 06:53:40;;;;;;;32.78;19.95;;;;;;;7.78;80.38;101673.91;5014611;28;20029;-89
2023/03/01 06:56:06;;;;;;;34.00;19.00;;;;;;;7.67;81.21;101674.47;5015546;28;20034;-88
2023/03/01 06:58:31;;;;;;;27.50;18.40;;;;;;;7.53;81.07;101663.63;4997148;28;20029;-89
2023/03/01 07:00:57;;;;;;;30.42;20.52;;;;;;;7.61;81.37;101672.09;5015304;28;20022;-89
2023/03/01 07:03:22;;;;;;;33.95;20.73;;;;;;;7.74;81.69;101690.19;5014800;28;20038;-89
2023/03/01 07:05:52;;;;;;;36.40;22.95;;;;;;;7.82;81.69;101677.28;5015256;28;20112;-89
2023/03/01 07:08:18;;;;;;;43.30;22.00;;;;;;;7.77;81.32;101682.03;4997763;28;20489;-87
2023/03/01 07:10:44;;;;;;;37.47;21.98;;;;;;;7.85;81.20;101679.81;4999862;28;20117;-91
2023/03/01 07:13:09;;;;;;;39.42;21.42;;;;;;;7.78;80.77;101683.75;5001733;28;20060;-89
2023/03/01 07:15:35;;;;;;;31.75;21.60;;;;;;;7.70;81.16;101676.13;5020635;28;20045;-87
2023/03/01 07:18:00;;;;;;;35.67;20.85;;;;;;;7.73;81.75;101677.78;5037781;28;20053;-86
2023/03/01 07:20:26;;;;;;;33.25;20.95;;;;;;;7.77;81.46;101687.38;5038282;28;20025;-89
2023/03/01 07:22:52;;;;;;;42.45;22.52;;;;;;;7.68;80.97;101684.22;5037176;28;20097;-88
2023/03/01 07:25:18;;;;;;;34.90;20.20;;;;;;;7.79;81.26;101685.50;5038283;28;20074;-89
2023/03/01 07:27:43;;;;;;;36.85;20.98;;;;;;;7.57;80.89;101694.66;5022744;28;20046;-89
2023/03/01 07:30:09;;;;;;;38.47;23.02;;;;;;;7.46;81.40;101691.63;5016443;28;20026;-87
2023/03/01 07:32:35;;;;;;;38.85;21.45;;;;;;;7.35;82.43;101685.97;4998210;28;20030;-88
2023/03/01 07:35:00;;;;;;;41.50;23.35;;;;;;;7.47;82.16;101696.06;5017534;28;20025;-89
2023/03/01 07:37:26;;;;;;;48.50;25.48;;;;;;;7.46;82.83;101678.25;5017993;28;20034;-88
2023/03/01 07:39:51;;;;;;;41.40;27.23;;;;;;;7.58;82.89;101688.31;5021196;28;20022;-90
2023/03/01 07:42:17;;;;;;;42.55;23.63;;;;;;;7.61;83.33;101682.81;5022864;28;20026;-89
2023/03/01 07:44:42;;;;;;;37.70;22.73;;;;;;;7.76;83.10;101691.00;5031428;28;20062;-86
2023/03/01 07:47:07;;;;;;;47.22;22.85;;;;;;;7.44;82.65;101668.56;5036971;28;20030;-85
2023/03/01 07:49:34;;;;;;;42.17;24.48;;;;;;;7.48;82.79;101691.56;5026970;28;20116;-90
2023/03/01 07:51:59;;;;;;;53.58;25.20;;;;;;;7.56;83.17;101686.69;4996220;28;20337;-89
2023/03/01 07:54:26;;;;;;;46.63;24.40;;;;;;;7.64;83.41;101687.16;5015463;28;20045;-89
2023/03/01 07:56:51;;;;;;;57.25;26.00;;;;;;;7.67;82.79;101676.28;5014931;28;20080;-88
2023/03/01 07:59:17;;;;;;;50.58;27.70;;;;;;;7.66;83.04;101675.44;5014719;28;20029;-88
2023/03/01 08:01:42;;;;;;;48.92;24.08;;;;;;;7.79;82.79;101680.13;5015346;28;20080;-90
2023/03/01 08:04:08;;;;;;;64.20;35.38;;;;;;;7.79;82.83;101674.78;5014835;28;20030;-88
2023/03/01 08:06:35;;;;;;;42.20;26.15;;;;;;;7.81;82.73;101684.44;5014655;28;20033;-89
2023/03/01 08:09:00;;;;;;;40.50;24.40;;;;;;;7.90;81.81;101688.44;4997596;28;20458;-89
2023/03/01 08:11:28;;;;;;;46.08;21.73;;;;;;;7.79;80.78;101690.84;4996614;28;20112;-92
2023/03/01 08:13:53;;;;;;;42.92;22.08;;;;;;;7.79;80.48;101681.00;5014486;28;20025;-87
2023/03/01 08:16:19;;;;;;;45.33;22.75;;;;;;;7.78;80.23;101673.03;5014396;28;20381;-89
2023/03/01 08:18:44;;;;;;;33.90;22.35;;;;;;;7.91;80.64;101679.47;5015056;28;20163;-86
2023/03/01 08:21:16;;;;;;;33.83;21.90;;;;;;;7.92;80.61;101692.78;5015515;28;20018;-90
2023/03/01 08:23:43;;;;;;;34.40;22.25;;;;;;;7.95;80.20;101686.41;5013202;28;20037;-91
2023/03/01 08:26:12;;;;;;;40.13;20.90;;;;;;;7.93;79.82;101685.59;4995649;28;20117;-88
2023/03/01 08:28:38;;;;;;;33.72;20.02;;;;;;;8.04;79.24;101675.19;5012152;28;20036;-89
2023/03/01 08:31:14;;;;;;;37.58;21.63;;;;;;;7.67;78.78;101669.09;5018715;28;20026;-89
2023/03/01 08:33:40;;;;;;;38.42;20.65;;;;;;;7.74;78.59;101676.81;5012688;28;20065;-88
2023/03/01 08:36:06;;;;;;;32.05;20.17;;;;;;;7.77;79.63;101679.34;5012348;28;20060;-88
2023/03/01 08:38:35;;;;;;;43.50;22.65;;;;;;;7.74;79.44;101683.03;5016119;28;20092;-89
2023/03/01 08:41:02;;;;;;;34.83;21.85;;;;;;;7.82;79.11;101685.31;5017810;28;20022;-88
2023/03/01 08:43:27;;;;;;;34.42;20.33;;;;;;;7.92;79.23;101690.09;5009476;28;20037;-86
2023/03/01 08:45:53;;;;;;;35.22;20.67;;;;;;;8.00;78.56;101685.22;5035553;28;20034;-85
2023/03/01 08:48:18;;;;;;;38.90;21.58;;;;;;;7.96;77.98;101682.75;5029088;28;20041;-87
2023/03/01 08:50:44;;;;;;;29.00;20.38;;;;;;;7.79;77.75;101693.53;5012139;28;20033;-88
2023/03/01 08:53:09;;;;;;;37.25;23.17;;;;;;;7.76;77.70;101680.28;4995336;28;20092;-87
2023/03/01 08:55:35;;;;;;;35.65;23.17;;;;;;;7.92;78.42;101675.84;4996340;28;20022;-89
2023/03/01 08:58:00;;;;;;;38.45;23.63;;;;;;;8.15;78.34;101673.66;5013134;28;20034;-89
2023/03/01 09:00:26;;;;;;;40.53;23.15;;;;;;;8.09;77.93;101668.63;4994342;28;20022;-89
2023/03/01 09:02:51;;;;;;;36.78;22.35;;;;;;;8.09;77.09;101665.09;5013937;28;20052;-89
2023/03/01 09:05:17;;;;;;;37.50;22.08;;;;;;;8.10;76.10;101670.34;5011848;28;20049;-89
2023/03/01 09:07:42;;;;;;;32.47;21.38;;;;;;;7.90;75.81;101673.25;5011852;28;20440;-90
2023/03/01 09:10:08;;;;;;;35.47;24.10;;;;;;;8.08;76.36;101672.25;5011254;28;20081;-89
2023/03/01 09:12:34;;;;;;;38.63;24.20;;;;;;;8.07;76.17;101669.66;5012533;28;20425;-87
2023/03/01 09:14:59;;;;;;;37.10;24.67;;;;;;;8.16;76.03;101663.81;5011553;28;20034;-87
2023/03/01 09:17:25;;;;;;;39.63;22.98;;;;;;;8.02;76.16;101661.88;5014726;28;20029;-87
2023/03/01 09:19:50;;;;;;;48.88;25.88;;;;;;;8.17;76.41;101671.75;5014521;28;20416;-88
2023/03/01 09:22:16;;;;;;;39.40;27.58;;;;;;;7.96;76.56;101677.41;5015299;28;20040;-88
2023/03/01 09:24:41;;;;;;;38.92;24.90;;;;;;;8.04;76.40;101659.97;5014630;28;20542;-87
2023/03/01 09:27:08;;;;;;;48.05;27.17;;;;;;;8.18;76.14;101677.97;5015866;28;20061;-87
2023/03/01 09:29:37;;;;;;;42.05;26.02;;;;;;;8.13;76.42;101669.34;5014596;28;20088;-88
2023/03/01 09:32:03;;;;;;;42.78;26.10;;;;;;;8.18;76.63;101675.31;5014710;28;20089;-87
2023/03/01 09:34:29;;;;;;;43.55;25.33;;;;;;;8.27;76.19;101674.78;5013933;28;20018;-87
2023/03/01 09:36:54;;;;;;;40.92;27.60;;;;;;;8.38;76.44;101675.09;5015494;28;20421;-86
2023/03/01 09:39:20;;;;;;;45.88;27.95;;;;;;;8.51;76.79;101681.50;5017678;28;20446;-88
2023/03/01 09:42:04;;;;;;;38.97;27.75;;;;;;;8.46;76.01;101672.88;5008315;28;20045;-86
2023/03/01 09:44:40;;;;;;;45.70;27.20;;;;;;;8.58;76.24;101672.16;5034455;28;20085;-84
2023/03/01 09:47:14;;;;;;;57.65;30.95;;;;;;;8.72;76.41;101663.31;5033742;28;20041;-87
2023/03/01 09:49:42;;;;;;;47.38;30.50;;;;;;;8.80;75.61;101670.94;5016452;28;20056;-88
2023/03/01 09:52:30;;;;;;;50.55;23.65;;;;;;;8.73;73.53;101665.94;5015235;28;20089;-88
2023/03/01 09:54:56;;;;;;;57.90;26.35;;;;;;;8.58;72.63;101661.44;5018323;28;20071;-85
2023/03/01 09:57:36;;;;;;;42.35;25.52;;;;;;;8.47;73.28;101653.13;5015388;28;20037;-89
2023/03/01 10:00:36;;;;;;;63.38;45.20;;;;;;;8.56;73.32;101663.31;5015177;28;20029;-87
2023/03/01 10:03:24;;;;;;;40.03;22.75;;;;;;;8.61;73.83;101669.31;5015449;28;20025;-86
2023/03/01 10:06:14;;;;;;;46.53;24.35;;;;;;;8.59;73.45;101663.16;5014672;28;20045;-88
2023/03/01 10:08:46;;;;;;;34.92;22.48;;;;;;;8.45;73.13;101664.88;5014076;28;20030;-88
2023/03/01 10:11:20;;;;;;;;;;;;;;;8.44;72.42;101652.47;5016016;28;20065;-88
2023/03/01 10:13:48;;;;;;;48.28;23.92;;;;;;;8.46;72.87;101651.41;5013451;28;19923;-88
2023/03/01 10:16:25;;;;;;;50.55;26.42;;;;;;;8.51;74.06;101653.81;5012803;28;20069;-88
2023/03/01 10:19:15;;;;;;;41.22;23.20;;;;;;;8.46;73.76;101646.06;5012911;28;20549;-87
2023/03/01 10:21:45;;;;;;;42.53;24.38;;;;;;;8.55;73.78;101631.25;5016521;28;20030;-88
2023/03/01 10:24:15;;;;;;;39.25;22.33;;;;;;;8.64;73.14;101650.38;5018235;28;20045;-86
2023/03/01 10:26:50;;;;;;;32.45;19.60;;;;;;;8.68;72.64;101635.81;5000184;28;20121;-87
2023/03/01 10:29:16;;;;;;;35.08;18.75;;;;;;;8.77;72.75;101639.81;5016268;28;20033;-88
2023/03/01 10:31:48;;;;;;;32.72;18.10;;;;;;;8.63;71.35;101637.91;5000566;28;20041;-86
2023/03/01 10:34:17;;;;;;;35.00;18.05;;;;;;;8.54;71.47;101627.69;5018853;28;20026;-85
2023/03/01 10:36:47;;;;;;;34.90;18.25;;;;;;;8.50;71.80;101628.81;5019205;28;20029;-86
2023/03/01 10:39:15;;;;;;;28.90;18.55;;;;;;;8.52;72.25;101626.06;5019356;28;20112;-85
2023/03/01 10:41:59;;;;;;;25.92;16.60;;;;;;;8.55;72.14;101626.75;5026607;28;20030;-83
2023/03/01 10:44:46;;;;;;;28.38;17.92;;;;;;;8.57;72.90;101615.94;5038240;28;20033;-87
2023/03/01 10:47:16;;;;;;;35.70;17.20;;;;;;;8.63;72.48;101612.91;5027640;28;20059;-88
2023/03/01 10:50:05;;;;;;;36.42;16.23;;;;;;;8.75;71.78;101610.38;4959798;28;20182;-85
2023/03/01 10:52:40;;;;;;;30.58;16.50;;;;;;;8.88;71.28;101618.56;4957674;29;20122;-91
2023/03/01 10:55:27;;;;;;;25.48;17.25;;;;;;;8.74;70.66;101597.91;4954097;29;20611;-88
2023/03/01 10:58:20;;;;;;;30.85;18.75;;;;;;;8.84;71.15;101603.59;4954157;29;20504;-86
2023/03/01 11:00:54;;;;;;;28.23;16.75;;;;;;;8.92;70.79;101606.72;4936995;29;20047;-86
2023/03/01 11:03:27;;;;;;;28.25;18.55;;;;;;;9.03;71.56;101612.31;4935849;29;20451;-84
2023/03/01 11:05:57;;;;;;;28.58;17.08;;;;;;;8.98;70.52;101592.06;4936091;29;20169;-85
2023/03/01 11:08:41;;;;;;;24.48;15.93;;;;;;;9.01;70.35;101594.56;4936529;29;20099;-85
2023/03/01 11:11:09;;;;;;;27.17;16.05;;;;;;;9.16;70.31;101604.38;4935975;29;20187;-87
2023/03/01 11:13:35;;;;;;;26.90;16.23;;;;;;;9.06;69.67;101600.53;4934071;29;20043;-87
2023/03/01 11:16:09;;;;;;;25.25;15.82;;;;;;;9.08;69.90;101599.47;4941636;29;20032;-83
2023/03/01 11:18:34;;;;;;;29.27;15.27;;;;;;;8.90;69.00;101587.16;4949220;29;20048;-84
2023/03/01 11:21:01;;;;;;;25.40;16.02;;;;;;;8.95;70.06;101581.53;4948746;29;20491;-83
2023/03/01 11:23:29;;;;;;;24.42;15.45;;;;;;;8.98;69.39;101581.34;4949772;29;20031;-89
2023/03/01 11:25:58;;;;;;;26.60;18.10;;;;;;;8.95;70.18;101578.84;4933944;29;20512;-87